MMGL/GDL METAR and TAF weather

Enter ICAO airport designator
Station Type Date Time Source
MMGL METAR 2020/09/18 05:49 UTC NOAA

MMGL 180549Z 28008KT 8SM FEW020 SCT080 BKN300 20/17 A3014 RMK SLP081 52009 963 8/538


Station Type Date Time Source
MMGL Decoded METAR 2020/09/18 05:49 UTC NOAA

Don Miguel / Guadalaj, Mexico (MMGL) 20-31N 103-19W
Sep 18, 2020 - 01:49 AM EDT / 2020.09.18 0549 UTC
Wind: from the W (280 degrees) at 9 MPH (8 KT):0
Visibility: 8 mile(s):0
Sky conditions: mostly cloudy
Temperature: 68 F (20 C)
Dew Point: 62 F (17 C)
Relative Humidity: 82%
Pressure (altimeter): 30.14 in. Hg (1020 hPa)
Pressure tendency: 0.03 inches (0.9 hPa) higher than three hours ago
ob: MMGL 180549Z 28008KT 8SM FEW020 SCT080 BKN300 20/17 A3014 RMK SLP081 52009 963 8/538
cycle: 6

Station Type Date Time Source
MMGL TAF 2020/09/18 06:26 UTC NOAA

TAF MMGL 180418Z 1806/1912 00000KT P6SM BKN080 BKN300 TX26/1821Z TN18/1810Z
FM181800 09010KT P6SM SCT030
BECMG 1819/1820 BKN030 BKN300 PROB40 1900/1904 VC TS BKN030CB

Example: see airport list